Omemee, North Dakota
Current Conditions -  °F | °C
As of 9:55 AM on Friday 19 Dec 2014 (Local Time) from KRUG Reporting Station
Haze Haze  
Wind Chill: 21°   Ceiling: 200
Heat Index: 27°   Visibility: 1.7mi
Dew Point: 27°   Wind: 5mph
Humidity: 100%   Direction: 190°S
Pressure: 29.95"   Gusts: NA
Location:  48.5496°N, 100.255°W
Report Text: KRUG 191555Z AUTO 19004KT 1 3/4SM BR OVC002 M03/M03 A2995 RMK AO2
Loading
Personal Weather Stations






























Interactive Weather Map New forecast layout! Learn more

10-Day Weather Forecast

Advertisements
Track Severe Weather on mobile